Time;durP1;ratioP1;P1;durP2;ratioP2;P2;SDS_P1;SDS_P2;PMS_P1;PMS_P2;Temp;Humidity;BMP_temperature;BMP_pressure;BME280_temperature;BME280_humidity;BME280_pressure;Samples;Min_cycle;Max_cycle;Signal;HPM_P1;HPM_P2
2022/02/19 00:00:23;;;;;;;;;1.50;0.00;;;;;8.12;55.73;101341.22;5110121;27;45407;-63
2022/02/19 00:02:53;;;;;;;;;0.50;0.00;;;;;8.10;55.59;101337.81;5107331;27;45556;-59
2022/02/19 00:05:19;;;;;;;;;2.25;0.00;;;;;8.08;55.76;101348.38;5108468;27;45444;-60
2022/02/19 00:07:46;;;;;;;;;0.00;0.00;;;;;8.11;55.88;101353.50;5107059;27;45470;-57
2022/02/19 00:10:13;;;;;;;;;0.25;0.00;;;;;8.12;56.07;101364.84;5111850;27;45556;-59
2022/02/19 00:12:39;;;;;;;;;1.00;1.00;;;;;8.09;56.17;101357.94;5109502;27;45540;-58
2022/02/19 00:15:06;;;;;;;;;0.75;0.00;;;;;8.07;56.19;101364.19;5090583;27;45530;-60
2022/02/19 00:17:32;;;;;;;;;1.00;0.00;;;;;8.02;56.16;101366.97;5103957;27;45553;-59
2022/02/19 00:20:00;;;;;;;;;3.00;0.00;;;;;8.01;56.26;101367.03;5110507;27;45510;-60
2022/02/19 00:22:26;;;;;;;;;1.00;0.00;;;;;7.98;56.92;101375.00;5110576;27;45440;-61
2022/02/19 00:24:52;;;;;;;;;1.75;0.25;;;;;7.96;56.78;101377.69;5110223;27;45453;-60
2022/02/19 00:27:18;;;;;;;;;1.25;0.00;;;;;7.96;56.81;101379.47;5106082;27;45913;-62
2022/02/19 00:29:43;;;;;;;;;3.25;0.00;;;;;7.94;56.72;101379.53;5106854;27;45468;-61
2022/02/19 00:32:09;;;;;;;;;1.00;0.00;;;;;7.94;57.21;101384.78;5103713;27;45434;-61
2022/02/19 00:34:34;;;;;;;;;0.50;0.00;;;;;7.91;57.02;101386.66;5110344;27;45467;-59
2022/02/19 00:37:01;;;;;;;;;1.00;0.00;;;;;7.89;57.12;101385.84;5110042;27;45673;-61
2022/02/19 00:39:27;;;;;;;;;0.25;0.00;;;;;7.88;56.98;101387.63;5109140;27;45655;-61
2022/02/19 00:41:53;;;;;;;;;4.50;0.00;;;;;7.88;57.31;101376.28;5106117;27;45532;-62
2022/02/19 00:44:18;;;;;;;;;1.25;0.00;;;;;7.85;57.38;101387.75;5106950;27;45351;-62
2022/02/19 00:46:44;;;;;;;;;7.00;0.00;;;;;7.85;57.41;101395.63;5108405;27;45485;-61
2022/02/19 00:49:09;;;;;;;;;1.50;0.00;;;;;7.83;57.09;101395.69;5108453;27;45593;-62
2022/02/19 00:51:35;;;;;;;;;3.00;0.00;;;;;7.84;56.95;101412.28;5106069;27;45446;-59
2022/02/19 00:54:01;;;;;;;;;2.00;0.75;;;;;7.83;57.33;101413.19;5104248;27;45564;-61
2022/02/19 00:56:27;;;;;;;;;2.00;0.00;;;;;7.80;57.32;101422.00;5109964;27;45522;-59
2022/02/19 00:58:53;;;;;;;;;1.00;0.00;;;;;7.81;57.04;101421.09;5110388;27;45668;-60
2022/02/19 01:01:19;;;;;;;;;1.00;1.00;;;;;7.82;57.18;101421.97;5107021;27;45776;-59
2022/02/19 01:03:44;;;;;;;;;0.00;0.00;;;;;7.82;57.38;101417.59;5106691;27;45997;-63
2022/02/19 01:06:10;;;;;;;;;0.50;0.00;;;;;7.79;56.78;101422.91;5106649;27;46356;-62
2022/02/19 01:08:35;;;;;;;;;0.75;0.00;;;;;7.78;57.06;101421.22;5111269;27;45778;-62
2022/02/19 01:11:01;;;;;;;;;0.00;0.00;;;;;7.78;56.92;101418.59;5109029;27;45441;-61
2022/02/19 01:13:26;;;;;;;;;5.00;1.00;;;;;7.78;56.75;101428.22;5108102;27;45790;-63
2022/02/19 01:15:52;;;;;;;;;0.75;0.00;;;;;7.73;57.03;101420.50;5106690;27;46251;-59
2022/02/19 01:18:17;;;;;;;;;0.00;0.00;;;;;7.74;56.84;101432.75;5103699;27;45431;-60
2022/02/19 01:20:45;;;;;;;;;0.25;0.00;;;;;7.70;56.80;101420.63;5109083;27;45508;-60
2022/02/19 01:23:11;;;;;;;;;2.00;0.25;;;;;7.72;57.08;101438.94;5104843;27;45394;-60
2022/02/19 01:25:37;;;;;;;;;1.00;0.00;;;;;7.72;57.13;101433.69;5107835;27;46323;-60
2022/02/19 01:28:03;;;;;;;;;1.25;0.00;;;;;7.71;57.03;101438.06;5106274;27;45465;-60
2022/02/19 01:30:29;;;;;;;;;3.50;0.00;;;;;7.69;57.07;101434.66;5103153;27;45432;-60
2022/02/19 01:32:54;;;;;;;;;4.25;0.75;;;;;7.70;57.02;101435.53;5105900;27;45904;-59
2022/02/19 01:35:20;;;;;;;;;1.00;1.00;;;;;7.67;57.25;101433.03;5107149;27;46191;-59
2022/02/19 01:37:45;;;;;;;;;1.75;0.00;;;;;7.67;57.34;101435.66;5101558;27;45389;-61
2022/02/19 01:40:11;;;;;;;;;1.00;0.00;;;;;7.67;57.09;101438.25;5100480;27;45422;-61
2022/02/19 01:42:39;;;;;;;;;0.25;0.00;;;;;7.67;56.93;101436.50;5081943;28;45265;-60
2022/02/19 01:45:07;;;;;;;;;4.75;0.50;;;;;7.66;57.34;101433.91;5090910;27;45694;-60
2022/02/19 01:47:34;;;;;;;;;0.75;0.00;;;;;7.65;57.25;101433.03;5093073;27;45407;-60
2022/02/19 01:49:59;;;;;;;;;4.75;1.00;;;;;7.64;57.35;101441.81;5081482;28;45336;-61
2022/02/19 01:52:25;;;;;;;;;1.00;0.00;;;;;7.61;57.67;101434.09;5081637;27;45244;-60
2022/02/19 01:54:51;;;;;;;;;1.00;0.00;;;;;7.56;58.16;101438.63;5081290;27;46136;-60
2022/02/19 01:57:16;;;;;;;;;2.75;0.50;;;;;7.55;58.10;101440.41;5086890;27;45366;-60
2022/02/19 01:59:42;;;;;;;;;1.00;1.00;;;;;7.53;58.21;101442.22;5081051;27;45500;-60
2022/02/19 02:02:09;;;;;;;;;3.00;0.00;;;;;7.53;58.30;101444.00;5081484;28;45232;-60
2022/02/19 02:04:35;;;;;;;;;1.75;0.00;;;;;7.53;58.37;101442.22;5080894;28;46342;-60
2022/02/19 02:07:02;;;;;;;;;3.00;0.00;;;;;7.52;58.45;101437.91;5081262;27;45293;-60
2022/02/19 02:09:28;;;;;;;;;1.75;0.00;;;;;7.50;58.28;101444.97;5081131;28;45678;-60
2022/02/19 02:11:54;;;;;;;;;0.25;0.00;;;;;7.47;58.64;101446.81;5081425;27;45406;-60
2022/02/19 02:14:20;;;;;;;;;0.75;0.00;;;;;7.47;58.93;101455.53;5080946;28;45331;-61
2022/02/19 02:16:45;;;;;;;;;0.00;0.00;;;;;7.47;58.73;101455.53;5081192;28;45347;-60
2022/02/19 02:19:11;;;;;;;;;1.00;0.00;;;;;7.46;59.05;101460.84;5080693;28;45332;-60
2022/02/19 02:21:38;;;;;;;;;2.25;0.00;;;;;7.42;58.67;101465.31;5081268;28;45358;-61
2022/02/19 02:24:05;;;;;;;;;0.25;0.00;;;;;7.39;58.96;101452.31;5080987;28;46163;-60
2022/02/19 02:26:30;;;;;;;;;0.50;0.00;;;;;7.39;59.20;101451.47;5080984;28;45236;-60
2022/02/19 02:28:56;;;;;;;;;0.25;0.00;;;;;7.37;59.39;101454.16;5081126;28;45324;-60
2022/02/19 02:31:22;;;;;;;;;1.00;0.00;;;;;7.38;59.20;101460.25;5080962;28;45641;-60
2022/02/19 02:33:49;;;;;;;;;1.00;0.00;;;;;7.36;59.43;101455.06;5080352;28;45392;-60
2022/02/19 02:36:16;;;;;;;;;3.00;0.00;;;;;7.33;59.18;101459.53;5081058;28;45451;-60
2022/02/19 02:38:41;;;;;;;;;0.00;0.00;;;;;7.30;59.06;101457.88;5092420;27;45343;-60
2022/02/19 02:41:07;;;;;;;;;0.00;0.00;;;;;7.29;59.65;101450.94;5102718;27;45267;-60
2022/02/19 02:43:32;;;;;;;;;2.50;0.00;;;;;7.27;59.58;101455.38;5088127;27;45552;-60
2022/02/19 02:45:58;;;;;;;;;0.75;0.75;;;;;7.23;59.29;101452.00;5101201;27;45175;-60
2022/02/19 02:48:23;;;;;;;;;1.50;0.00;;;;;7.25;59.91;101455.41;5088563;27;45605;-60
2022/02/19 02:50:50;;;;;;;;;1.00;0.00;;;;;7.24;59.84;101458.09;5084597;28;45388;-60
2022/02/19 02:53:17;;;;;;;;;5.50;0.00;;;;;7.21;60.04;101464.31;5084117;27;45373;-60
2022/02/19 02:55:42;;;;;;;;;0.00;0.00;;;;;7.18;59.64;101459.16;5085359;27;45370;-60
2022/02/19 02:58:08;;;;;;;;;0.25;0.00;;;;;7.18;60.25;101464.38;5104756;27;45430;-60
2022/02/19 03:00:33;;;;;;;;;0.25;0.00;;;;;7.16;59.82;101465.34;5104656;27;45420;-60
2022/02/19 03:02:59;;;;;;;;;1.00;0.00;;;;;7.18;59.95;101474.00;5104095;27;45343;-60
2022/02/19 03:05:25;;;;;;;;;1.00;0.00;;;;;7.14;60.09;101468.03;5091829;27;45409;-61
2022/02/19 03:07:51;;;;;;;;;2.50;0.00;;;;;7.12;60.56;101479.47;5097544;27;45315;-61
2022/02/19 03:10:18;;;;;;;;;2.25;1.00;;;;;7.10;60.01;101481.28;5084144;27;45433;-61
2022/02/19 03:12:46;;;;;;;;;1.25;0.00;;;;;7.08;60.16;101489.19;5083722;27;45342;-61
2022/02/19 03:15:18;;;;;;;;;2.00;0.00;;;;;7.07;60.91;101473.53;5084220;27;45389;-61
2022/02/19 03:17:44;;;;;;;;;0.00;0.00;;;;;7.03;60.32;101493.75;5083620;27;45319;-61
2022/02/19 03:20:14;;;;;;;;;0.00;0.00;;;;;7.02;60.47;101497.25;5084250;27;45181;-61
2022/02/19 03:22:40;;;;;;;;;0.00;0.00;;;;;7.03;60.66;101496.34;5083593;27;45407;-61
2022/02/19 03:25:06;;;;;;;;;1.75;0.25;;;;;7.04;61.05;101499.84;5083728;27;45308;-61
2022/02/19 03:27:31;;;;;;;;;0.00;0.00;;;;;7.04;60.48;101499.84;5085456;27;45328;-61
2022/02/19 03:29:57;;;;;;;;;1.50;0.00;;;;;6.99;60.88;101503.44;5099218;27;45141;-61
2022/02/19 03:32:23;;;;;;;;;1.00;0.00;;;;;6.99;60.82;101505.22;5103868;27;45285;-61
2022/02/19 03:34:48;;;;;;;;;1.50;0.00;;;;;6.99;61.14;101500.81;5104235;27;45334;-61
2022/02/19 03:37:13;;;;;;;;;4.50;0.00;;;;;7.00;60.63;101502.53;5102554;27;45274;-61
2022/02/19 03:39:39;;;;;;;;;3.00;0.00;;;;;7.02;60.68;101510.34;5092024;27;45208;-61
2022/02/19 03:42:05;;;;;;;;;0.75;0.00;;;;;7.00;60.57;101512.16;5086413;27;46156;-61
2022/02/19 03:44:31;;;;;;;;;2.00;0.00;;;;;6.99;60.53;101520.91;5088305;27;45629;-61
2022/02/19 03:46:57;;;;;;;;;0.50;0.00;;;;;6.96;61.12;101515.78;5100069;27;45358;-61
2022/02/19 03:49:22;;;;;;;;;1.00;0.00;;;;;6.93;61.15;101521.09;5075084;27;45643;-61
2022/02/19 03:51:48;;;;;;;;;0.75;0.00;;;;;6.89;60.79;101514.28;5086639;27;45982;-61
2022/02/19 03:54:13;;;;;;;;;0.00;0.00;;;;;6.90;60.82;101521.22;5091466;27;45355;-61
2022/02/19 03:56:38;;;;;;;;;7.00;0.00;;;;;6.89;61.38;101525.59;5089047;27;45617;-61
2022/02/19 03:59:04;;;;;;;;;0.50;0.00;;;;;6.89;61.27;101529.97;5083422;28;45497;-61
2022/02/19 04:01:30;;;;;;;;;0.50;0.00;;;;;6.88;61.33;101530.91;5082971;28;45926;-64
2022/02/19 04:03:55;;;;;;;;;0.75;0.00;;;;;6.87;60.81;101539.63;5074471;27;45371;-63
2022/02/19 04:06:21;;;;;;;;;2.00;1.00;;;;;6.86;61.00;101536.16;5084531;27;45431;-62
2022/02/19 04:08:47;;;;;;;;;4.50;0.00;;;;;6.82;61.04;101528.47;5103943;27;45415;-62
2022/02/19 04:11:13;;;;;;;;;1.00;0.00;;;;;6.84;61.38;101542.34;5103412;27;45656;-63
2022/02/19 04:13:39;;;;;;;;;2.00;0.00;;;;;6.80;60.89;101544.22;5103490;27;45351;-62
2022/02/19 04:16:05;;;;;;;;;2.00;0.00;;;;;6.81;61.45;101551.16;5085255;27;45286;-62
2022/02/19 04:18:30;;;;;;;;;0.00;0.00;;;;;6.82;61.40;101558.13;5103433;27;45160;-61
2022/02/19 04:20:56;;;;;;;;;0.00;0.00;;;;;6.82;61.19;101555.50;5086865;27;45625;-62
2022/02/19 04:23:21;;;;;;;;;0.50;0.00;;;;;6.83;60.83;101551.97;5082612;28;45356;-61
2022/02/19 04:25:47;;;;;;;;;2.75;0.00;;;;;6.81;61.59;101551.16;5082683;27;45426;-61
2022/02/19 04:28:12;;;;;;;;;0.75;0.00;;;;;6.79;61.18;101549.47;5065067;28;45417;-61
2022/02/19 04:30:38;;;;;;;;;0.00;0.00;;;;;6.76;61.20;101557.44;5082574;27;45466;-61
2022/02/19 04:33:04;;;;;;;;;2.50;0.00;;;;;6.75;61.57;101568.81;5082586;27;45397;-61
2022/02/19 04:35:31;;;;;;;;;1.00;0.00;;;;;6.72;61.61;101570.63;5082695;28;45399;-60
2022/02/19 04:37:57;;;;;;;;;1.00;0.00;;;;;6.70;61.91;101574.19;5082862;28;45628;-60
2022/02/19 04:40:23;;;;;;;;;0.00;0.00;;;;;6.71;61.57;101575.91;5094441;27;45300;-60
2022/02/19 04:42:49;;;;;;;;;6.75;0.00;;;;;6.68;61.84;101578.63;5082684;27;45335;-61
2022/02/19 04:45:15;;;;;;;;;0.00;0.00;;;;;6.65;61.85;101578.72;5093663;27;45423;-61
2022/02/19 04:47:41;;;;;;;;;0.00;0.00;;;;;6.66;61.31;101586.53;5071528;28;45458;-61
2022/02/19 04:50:08;;;;;;;;;0.00;0.00;;;;;6.67;61.71;101588.22;5062039;28;45393;-61
2022/02/19 04:52:34;;;;;;;;;0.00;0.00;;;;;6.67;61.31;101590.84;5072189;28;45355;-61
2022/02/19 04:55:00;;;;;;;;;2.00;0.00;;;;;6.64;61.61;101605.81;5065496;28;45248;-61
2022/02/19 04:57:26;;;;;;;;;1.00;0.00;;;;;6.62;62.39;101604.97;5067471;28;45313;-62
2022/02/19 04:59:52;;;;;;;;;1.50;0.00;;;;;6.63;62.02;101610.16;5074050;28;46707;-61
2022/02/19 05:02:18;;;;;;;;;0.75;0.00;;;;;6.62;61.79;101605.81;5063582;28;45319;-61
2022/02/19 05:04:44;;;;;;;;;1.00;0.00;;;;;6.63;61.99;101604.91;5061267;28;45269;-61
2022/02/19 05:07:09;;;;;;;;;0.00;0.00;;;;;6.61;61.37;101606.72;5062201;28;45272;-61
2022/02/19 05:09:35;;;;;;;;;5.00;0.00;;;;;6.60;62.40;101598.94;5076833;28;47660;-61
2022/02/19 05:12:02;;;;;;;;;1.50;0.00;;;;;6.57;62.08;101602.50;5072099;28;45502;-61
2022/02/19 05:14:28;;;;;;;;;0.25;0.00;;;;;6.56;61.44;101606.03;5060393;28;45494;-60
2022/02/19 05:16:54;;;;;;;;;0.00;0.00;;;;;6.55;61.85;101619.13;5067176;28;45544;-61
2022/02/19 05:19:19;;;;;;;;;0.00;0.00;;;;;6.54;61.68;101610.41;5076211;28;47586;-60
2022/02/19 05:21:45;;;;;;;;;0.75;0.00;;;;;6.54;61.58;101620.03;5082181;27;45365;-60
2022/02/19 05:24:10;;;;;;;;;1.25;0.75;;;;;6.53;61.78;101620.94;5077893;27;45243;-61
2022/02/19 05:26:36;;;;;;;;;1.50;0.00;;;;;6.52;62.12;101622.72;5070122;28;45600;-63
2022/02/19 05:29:02;;;;;;;;;0.00;0.00;;;;;6.51;62.05;101622.75;5065036;27;45314;-61
2022/02/19 05:31:28;;;;;;;;;1.00;0.00;;;;;6.50;61.82;101618.44;5061648;28;45399;-61
2022/02/19 05:33:53;;;;;;;;;1.00;0.00;;;;;6.50;62.45;101618.44;5056527;28;45180;-61
2022/02/19 05:36:19;;;;;;;;;2.00;0.25;;;;;6.48;62.47;101614.97;5061563;28;45449;-61
2022/02/19 05:38:44;;;;;;;;;0.00;0.00;;;;;6.48;62.77;101623.72;5063616;28;45816;-61
2022/02/19 05:41:10;;;;;;;;;0.00;0.00;;;;;6.46;62.83;101624.63;5072096;27;45347;-61
2022/02/19 05:43:35;;;;;;;;;1.00;0.00;;;;;6.46;62.90;101619.41;5061357;28;45450;-61
2022/02/19 05:46:01;;;;;;;;;0.00;0.00;;;;;6.43;62.91;101618.59;5078626;28;45379;-61
2022/02/19 05:48:27;;;;;;;;;2.25;0.00;;;;;6.43;62.66;101628.19;5099039;27;46355;-61
2022/02/19 05:50:53;;;;;;;;;0.00;0.00;;;;;6.43;62.52;101618.59;5092857;27;45405;-61
2022/02/19 05:53:18;;;;;;;;;2.25;0.50;;;;;6.43;62.65;101620.34;5081535;27;45546;-62
2022/02/19 05:55:44;;;;;;;;;1.25;0.00;;;;;6.41;62.34;101617.78;5072470;27;45443;-61
2022/02/19 05:58:10;;;;;;;;;2.00;0.00;;;;;6.40;62.13;101623.91;5067473;28;46934;-61
2022/02/19 06:00:35;;;;;;;;;2.00;1.00;;;;;6.40;62.80;101620.44;5071577;27;45443;-62
2022/02/19 06:03:01;;;;;;;;;2.00;0.00;;;;;6.38;62.78;101617.84;5086159;27;45312;-61
2022/02/19 06:05:26;;;;;;;;;0.75;0.00;;;;;6.35;62.50;101619.72;5081700;28;45389;-62
2022/02/19 06:07:52;;;;;;;;;2.00;0.00;;;;;6.34;62.16;101624.09;5081125;28;45997;-62
2022/02/19 06:10:17;;;;;;;;;0.75;0.00;;;;;6.32;62.69;101614.53;5081115;27;45312;-62
2022/02/19 06:12:43;;;;;;;;;1.00;0.00;;;;;6.30;62.27;101617.19;5081259;28;45484;-62
2022/02/19 06:15:09;;;;;;;;;4.25;0.25;;;;;6.31;62.62;101623.28;5070397;27;45937;-62
2022/02/19 06:17:35;;;;;;;;;0.00;0.00;;;;;6.29;62.31;101625.09;5086232;27;46444;-62
2022/02/19 06:20:00;;;;;;;;;1.25;0.00;;;;;6.32;63.23;101619.78;5081092;28;45152;-62
2022/02/19 06:22:26;;;;;;;;;0.00;0.00;;;;;6.32;62.52;101614.53;5081233;28;45166;-62
2022/02/19 06:24:52;;;;;;;;;2.00;0.50;;;;;6.31;62.80;101626.75;5081343;28;45441;-62
2022/02/19 06:27:18;;;;;;;;;2.00;1.00;;;;;6.30;62.56;101624.19;5080973;28;46105;-62
2022/02/19 06:29:43;;;;;;;;;1.50;0.00;;;;;6.32;62.76;101627.63;5081012;28;45410;-62
2022/02/19 06:32:09;;;;;;;;;2.00;1.00;;;;;6.30;62.64;101619.81;5081003;28;45528;-62
2022/02/19 06:34:35;;;;;;;;;1.50;0.00;;;;;6.29;62.78;101628.56;5081130;28;45440;-62
2022/02/19 06:37:02;;;;;;;;;0.50;0.00;;;;;6.26;62.51;101644.38;5080701;27;46276;-62
2022/02/19 06:39:27;;;;;;;;;0.00;0.00;;;;;6.25;62.56;101649.66;5087386;27;45239;-62
2022/02/19 06:41:53;;;;;;;;;1.00;0.25;;;;;6.24;62.93;101646.16;5086119;27;45247;-62
2022/02/19 06:44:19;;;;;;;;;0.00;0.00;;;;;6.23;63.55;101648.81;5084133;27;45521;-62
2022/02/19 06:46:44;;;;;;;;;0.75;0.00;;;;;6.23;62.33;101660.13;5099270;27;45762;-62
2022/02/19 06:49:10;;;;;;;;;5.00;0.00;;;;;6.20;62.63;101660.22;5080526;27;45327;-62
2022/02/19 06:51:35;;;;;;;;;4.50;1.00;;;;;6.19;62.40;101662.88;5080781;27;45224;-61
2022/02/19 06:54:01;;;;;;;;;0.00;0.00;;;;;6.15;62.71;101675.16;5080977;28;45445;-61
2022/02/19 06:56:27;;;;;;;;;1.00;0.00;;;;;6.14;63.48;101671.69;5086508;27;45846;-62
2022/02/19 06:58:58;;;;;;;;;0.00;0.00;;;;;6.16;63.26;101682.09;5080774;28;45288;-62
2022/02/19 07:01:26;;;;;;;;;2.25;0.75;;;;;6.13;62.56;101680.44;5080439;28;45329;-61
2022/02/19 07:03:54;;;;;;;;;1.00;0.00;;;;;6.14;62.74;101687.38;5080662;28;45574;-61
2022/02/19 07:06:20;;;;;;;;;2.00;1.00;;;;;6.14;62.84;101695.22;5080467;28;45435;-62
2022/02/19 07:08:46;;;;;;;;;2.25;1.00;;;;;6.13;63.37;101693.53;5080571;28;45418;-62
2022/02/19 07:11:12;;;;;;;;;5.00;0.00;;;;;6.17;62.74;101693.47;5080305;28;45283;-62
2022/02/19 07:13:39;;;;;;;;;1.00;0.00;;;;;6.17;63.17;101696.06;5080444;28;45414;-61
2022/02/19 07:16:05;;;;;;;;;0.25;0.25;;;;;6.17;62.90;101694.31;5079927;28;45295;-62
2022/02/19 07:18:31;;;;;;;;;2.00;0.75;;;;;6.19;62.40;101696.91;5080581;28;45624;-62
2022/02/19 07:20:57;;;;;;;;;1.75;0.50;;;;;6.22;62.95;101695.03;5062179;28;45390;-62
2022/02/19 07:23:22;;;;;;;;;1.00;0.00;;;;;6.26;62.82;101694.06;5080567;28;45449;-61
2022/02/19 07:25:48;;;;;;;;;0.00;0.00;;;;;6.30;63.09;101708.78;5080109;28;45420;-62
2022/02/19 07:28:13;;;;;;;;;2.00;0.00;;;;;6.36;63.05;101710.38;5083251;28;45373;-62
2022/02/19 07:30:39;;;;;;;;;0.00;0.00;;;;;6.37;63.45;101701.63;5083856;27;45515;-62
2022/02/19 07:33:10;;;;;;;;;1.00;0.00;;;;;6.40;62.98;101714.66;5083786;27;45366;-62
2022/02/19 07:35:36;;;;;;;;;0.50;0.50;;;;;6.42;63.08;101718.94;5083623;27;45512;-62
2022/02/19 07:38:02;;;;;;;;;0.25;0.00;;;;;6.44;63.00;101717.13;5083529;27;45362;-62
2022/02/19 07:40:28;;;;;;;;;7.00;4.25;;;;;6.50;63.02;101723.13;5095120;27;45419;-62
2022/02/19 07:42:55;;;;;;;;;0.00;0.00;;;;;6.54;62.68;101722.13;5083058;27;45605;-62
2022/02/19 07:45:22;;;;;;;;;0.25;0.00;;;;;6.54;62.20;101722.97;5092672;27;45984;-62
2022/02/19 07:47:47;;;;;;;;;0.00;0.00;;;;;6.58;62.81;101732.47;5099862;27;45399;-62
2022/02/19 07:58:28;;;;;;;;;1.25;0.00;;;;;6.71;62.38;101756.56;5092208;27;45236;-62
2022/02/19 08:01:08;;;;;;;;;0.75;0.25;;;;;6.72;62.44;101755.69;5086349;27;45535;-62
2022/02/19 08:03:34;;;;;;;;;0.75;0.00;;;;;6.73;62.15;101754.78;5092515;27;45851;-62
2022/02/19 08:06:01;;;;;;;;;3.25;1.00;;;;;6.75;62.45;101766.06;5091351;27;45520;-63
2022/02/19 08:08:27;;;;;;;;;0.50;0.00;;;;;6.80;62.29;101758.94;5089536;27;45449;-62
2022/02/19 08:10:53;;;;;;;;;0.25;0.25;;;;;6.85;61.51;101761.44;5093288;27;45394;-63
2022/02/19 08:13:20;;;;;;;;;0.50;0.00;;;;;6.88;61.72;101761.38;5092581;27;45425;-65
2022/02/19 08:15:46;;;;;;;;;1.00;0.00;;;;;6.90;62.31;101757.78;5089221;27;45371;-63
2022/02/19 08:18:13;;;;;;;;;2.25;1.00;;;;;6.94;62.29;101758.56;5089474;27;45394;-62
2022/02/19 08:20:41;;;;;;;;;2.50;0.00;;;;;7.02;61.53;101760.94;5074903;27;45538;-64
2022/02/19 08:23:08;;;;;;;;;0.25;0.00;;;;;7.09;61.52;101760.75;5078216;27;45603;-63
2022/02/19 08:25:34;;;;;;;;;0.00;0.00;;;;;7.10;61.40;101761.59;5106718;27;45461;-63
2022/02/19 08:28:01;;;;;;;;;0.75;0.75;;;;;7.15;61.47;101763.19;5112168;27;45278;-62
2022/02/19 08:30:26;;;;;;;;;2.00;1.00;;;;;7.22;61.40;101754.25;5111949;27;45457;-62
2022/02/19 08:32:52;;;;;;;;;1.50;1.00;;;;;7.30;61.26;101763.66;5102898;27;45375;-62
2022/02/19 08:35:17;;;;;;;;;0.50;0.50;;;;;7.34;60.85;101766.13;5104149;27;45992;-63
2022/02/19 08:37:43;;;;;;;;;1.00;0.00;;;;;7.40;61.17;101763.34;5108657;27;45511;-63
2022/02/19 08:40:10;;;;;;;;;4.00;1.00;;;;;7.47;60.76;101769.25;5110159;27;45368;-63
2022/02/19 08:42:36;;;;;;;;;0.00;0.00;;;;;7.48;60.71;101763.97;5105982;27;45437;-62
2022/02/19 08:45:03;;;;;;;;;2.00;1.00;;;;;7.52;60.83;101762.13;5106438;27;45304;-63
2022/02/19 08:47:28;;;;;;;;;2.00;0.25;;;;;7.51;60.78;101763.88;5092764;27;45329;-63
2022/02/19 08:49:54;;;;;;;;;2.50;0.50;;;;;7.49;60.44;101768.28;5111368;27;46592;-63
2022/02/19 08:52:19;;;;;;;;;0.25;0.00;;;;;7.54;60.46;101776.91;5110325;27;45496;-63
2022/02/19 08:54:45;;;;;;;;;2.00;0.00;;;;;7.63;60.18;101782.75;5108795;27;45376;-62
2022/02/19 08:57:10;;;;;;;;;3.50;0.75;;;;;7.65;60.11;101778.31;5107338;27;45429;-62
2022/02/19 08:59:36;;;;;;;;;2.50;0.00;;;;;7.70;60.37;101785.16;5106279;27;45478;-63
2022/02/19 09:02:01;;;;;;;;;1.00;0.25;;;;;7.74;60.32;101772.78;5111027;27;45542;-63
2022/02/19 09:04:28;;;;;;;;;1.00;0.00;;;;;7.74;60.12;101783.28;5105664;27;46044;-60
2022/02/19 09:06:53;;;;;;;;;1.00;0.00;;;;;7.78;60.17;101788.41;5107897;27;45499;-60
2022/02/19 09:09:19;;;;;;;;;6.00;1.00;;;;;7.84;60.16;101784.75;5104514;27;45487;-60
2022/02/19 09:11:44;;;;;;;;;2.00;0.75;;;;;7.83;59.99;101793.50;5107940;27;45477;-61
2022/02/19 09:14:10;;;;;;;;;4.50;1.00;;;;;7.83;59.63;101794.38;5118385;27;45133;-60
2022/02/19 09:16:37;;;;;;;;;3.00;1.00;;;;;7.91;59.81;101806.41;5109256;27;45409;-60
2022/02/19 09:19:04;;;;;;;;;0.25;0.25;;;;;8.00;59.70;101798.22;5104595;27;45461;-60
2022/02/19 09:21:31;;;;;;;;;1.00;0.25;;;;;8.06;59.56;101801.53;5110540;27;45241;-60
2022/02/19 09:23:57;;;;;;;;;2.50;1.00;;;;;8.14;59.35;101796.03;5110867;27;46199;-59
2022/02/19 09:26:23;;;;;;;;;2.00;1.00;;;;;8.17;59.19;101788.06;5105270;27;45599;-66
2022/02/19 09:28:49;;;;;;;;;1.25;0.00;;;;;8.20;59.18;101784.47;5105466;27;45395;-72
2022/02/19 09:31:15;;;;;;;;;3.00;2.00;;;;;8.26;59.31;101787.75;5088200;27;45409;-74
2022/02/19 09:33:41;;;;;;;;;1.25;0.00;;;;;8.34;58.84;101782.25;5105526;27;45603;-73
2022/02/19 09:36:08;;;;;;;;;3.75;1.00;;;;;8.39;58.55;101781.22;5108779;27;45416;-74
2022/02/19 09:38:33;;;;;;;;;1.75;0.00;;;;;8.44;58.55;101778.41;5109653;27;45383;-74
2022/02/19 09:41:01;;;;;;;;;4.75;1.50;;;;;8.46;58.82;101774.00;5109647;27;45699;-74
2022/02/19 09:43:27;;;;;;;;;1.50;1.00;;;;;8.51;58.49;101777.31;5105661;27;45467;-67
2022/02/19 09:45:53;;;;;;;;;2.25;1.00;;;;;8.53;58.33;101778.13;5107188;27;45496;-71
2022/02/19 09:48:19;;;;;;;;;4.00;0.00;;;;;8.56;58.29;101785.91;5103374;27;45312;-74
2022/02/19 09:50:46;;;;;;;;;2.50;1.00;;;;;8.62;58.04;101780.44;5108990;27;45540;-74
2022/02/19 09:53:12;;;;;;;;;0.00;0.00;;;;;8.66;58.23;101787.28;5108599;27;46197;-75
2022/02/19 09:55:38;;;;;;;;;1.50;0.00;;;;;8.74;58.40;101783.53;5108317;27;45381;-74
2022/02/19 09:58:04;;;;;;;;;2.00;0.00;;;;;8.80;58.27;101788.59;5104568;27;46276;-73
2022/02/19 10:00:39;;;;;;;;;0.50;0.25;;;;;8.88;58.06;101789.19;5101992;27;45368;-74
2022/02/19 10:03:11;;;;;;;;;0.50;0.00;;;;;8.97;57.80;101783.59;5092595;27;45589;-76
2022/02/19 10:05:36;;;;;;;;;1.00;1.00;;;;;8.99;57.57;101781.75;5103474;27;45271;-75
2022/02/19 10:08:05;;;;;;;;;3.00;0.00;;;;;9.06;57.59;101777.16;5100805;27;45374;-76
2022/02/19 10:10:31;;;;;;;;;1.50;1.50;;;;;9.09;57.37;101769.16;5080959;27;45498;-74
2022/02/19 10:12:57;;;;;;;;;0.00;0.00;;;;;9.14;57.69;101760.19;5100239;27;46361;-73
2022/02/19 10:15:38;;;;;;;;;0.00;0.00;;;;;9.25;56.71;101757.16;5098602;27;45316;-71
2022/02/19 10:18:24;;;;;;;;;1.00;0.00;;;;;9.32;56.96;101758.66;5100289;27;45359;-71
2022/02/19 10:20:50;;;;;;;;;1.00;0.00;;;;;9.40;56.86;101766.22;5088946;27;45676;-72
2022/02/19 10:23:16;;;;;;;;;2.00;0.00;;;;;9.49;56.42;101755.38;5098640;27;45425;-71
2022/02/19 10:25:41;;;;;;;;;3.00;0.25;;;;;9.60;56.15;101749.69;5099657;27;45398;-72
2022/02/19 10:28:10;;;;;;;;;1.50;0.00;;;;;9.70;55.81;101745.78;5098858;27;45324;-73
2022/02/19 10:30:36;;;;;;;;;3.25;0.00;;;;;9.79;55.38;101756.81;5099830;27;45506;-74
2022/02/19 10:33:06;;;;;;;;;0.75;0.00;;;;;9.87;55.53;101758.25;5098421;27;45280;-72
2022/02/19 10:35:37;;;;;;;;;1.50;0.00;;;;;9.93;54.86;101755.38;5099816;27;45432;-77
2022/02/19 10:38:08;;;;;;;;;0.50;0.50;;;;;9.96;54.72;101752.66;5100372;27;45241;-74
2022/02/19 10:40:39;;;;;;;;;2.00;0.00;;;;;9.98;54.86;101756.06;5101402;27;45350;-73
2022/02/19 10:43:08;;;;;;;;;0.00;0.00;;;;;10.01;54.08;101748.03;5099821;27;46020;-72
2022/02/19 10:45:35;;;;;;;;;0.25;0.00;;;;;10.08;54.01;101747.72;5099571;27;45462;-71
2022/02/19 10:48:17;;;;;;;;;5.75;0.00;;;;;10.13;53.29;101742.28;5099521;27;45733;-71
2022/02/19 10:50:47;;;;;;;;;2.00;1.00;;;;;10.20;53.42;101746.38;5099351;27;45585;-72
2022/02/19 10:53:21;;;;;;;;;1.00;0.00;;;;;10.26;53.30;101746.13;5099611;27;46386;-71
2022/02/19 10:55:47;;;;;;;;;0.00;0.00;;;;;10.30;53.11;101734.56;5098407;27;45274;-72
2022/02/19 10:58:12;;;;;;;;;4.50;0.00;;;;;10.36;52.68;101740.50;5099980;27;45445;-73
2022/02/19 11:00:40;;;;;;;;;1.00;0.00;;;;;10.38;52.34;101733.38;5098257;27;45312;-74
2022/02/19 11:03:09;;;;;;;;;1.00;0.00;;;;;10.32;52.63;101735.34;5102585;27;45230;-73
2022/02/19 11:05:35;;;;;;;;;2.00;0.50;;;;;10.29;52.86;101738.13;5101821;27;45750;-72
2022/02/19 11:08:01;;;;;;;;;3.00;1.00;;;;;10.29;52.54;101750.44;5103498;27;45285;-71
2022/02/19 11:10:29;;;;;;;;;1.50;0.00;;;;;10.31;52.54;101741.53;5101933;27;45412;-73
2022/02/19 11:12:55;;;;;;;;;0.50;0.50;;;;;10.34;52.34;101745.81;5103120;27;46239;-72
2022/02/19 11:15:20;;;;;;;;;3.00;0.00;;;;;10.35;52.05;101742.28;5101645;27;45244;-76
2022/02/19 11:17:48;;;;;;;;;1.00;0.00;;;;;10.40;51.92;101740.28;5102963;27;45268;-73
2022/02/19 11:20:15;;;;;;;;;1.75;0.00;;;;;10.41;51.67;101734.09;5097194;27;45409;-73
2022/02/19 11:22:43;;;;;;;;;0.50;0.00;;;;;10.41;51.88;101733.25;5103020;27;45351;-74
2022/02/19 11:25:11;;;;;;;;;1.00;0.00;;;;;10.39;51.31;101735.94;5099580;27;45423;-71
2022/02/19 11:27:42;;;;;;;;;1.50;0.00;;;;;10.36;50.98;101725.56;5102382;27;45335;-71
2022/02/19 11:30:10;;;;;;;;;2.00;0.25;;;;;10.37;51.38;101729.03;5103577;27;45170;-69
2022/02/19 11:32:38;;;;;;;;;2.25;0.00;;;;;10.41;51.51;101720.94;5103560;27;46013;-69
2022/02/19 11:35:05;;;;;;;;;1.00;0.00;;;;;10.43;50.51;101707.72;5100918;27;45311;-72